Data for 11/30/2015

Time Sea-Level Adjusted Pressure Absolute Pressure Temperature Relative Humidity Dew Point   
(mb) (inHg) (mb) (inHg) (C) (F) (%) (C) (F)
00:05 1018 30.06 847 25.01 -10.5 13.2 69 -15.1 4.8
00:10 1018 30.06 847 25.01 -10.2 13.6 67 -15.2 4.7
00:15 1018 30.06 847 25.01 -10.2 13.6 68 -15.1 4.8
00:20 1018 30.06 847 25.01 -10.2 13.7 68 -15 5
00:25 1018 30.06 847 25.01 -10 13.9 67 -15 5
00:30 1018 30.06 847 25.01 -10.1 13.8 68 -14.9 5.1
00:35 1018 30.06 847 25.01 -10.3 13.4 69 -14.9 5.1
00:40 1018 30.06 847 25.01 -11.2 11.9 73 -15.1 4.8
00:45 1018 30.06 847 25.01 -11.5 11.3 73 -15.4 4.3
00:50 1018 30.06 847 25.01 -11.1 12.1 72 -15.2 4.7
00:55 1018 30.06 847 25.01 -10.9 12.4 72 -15.1 4.9
01:00 1018 30.06 847 25.01 -10.8 12.6 71 -15.1 4.8
01:05 1018 30.06 847 25.01 -10.8 12.5 72 -15 5
01:10 1018 30.06 847 25.01 -10.7 12.7 71 -15.1 4.9
01:15 1018 30.06 847 25.01 -10.6 12.9 70 -15.1 4.8
01:20 1018 30.06 847 25.01 -11.1 12 73 -15 5
01:25 1018 30.06 847 25.01 -11.1 12.1 74 -14.9 5.2
01:30 1018 30.06 847 25.01 -11 12.2 74 -14.8 5.4
01:35 1018 30.06 847 25.01 -10.8 12.6 73 -14.8 5.4
01:40 1018 30.06 847 25.01 -11 12.3 73 -14.9 5.3
01:45 1018 30.06 847 25.01 -11.2 11.9 76 -14.6 5.7
01:50 1018 30.06 847 25.01 -11.4 11.5 76 -14.8 5.3
01:55 1018 30.06 847 25.01 -11.3 11.7 76 -14.7 5.5
02:00 1018 30.06 847 25.01 -11.2 11.9 73 -15 4.9
02:05 1018 30.06 847 25.01 -11.5 11.3 74 -15.2 4.7
02:10 1018 30.06 847 25.01 -11.9 10.7 75 -15.4 4.3
02:15 1018 30.06 847 25.01 -11.8 10.8 77 -15.1 4.8
02:20 1018 30.06 847 25.01 -11.6 11.1 75 -15.3 4.5
02:25 1018 30.06 847 25.01 -11.2 11.8 73 -15.2 4.7
02:30 1018 30.06 847 25.01 -11.2 11.9 73 -15.2 4.7
02:35 1018 30.06 847 25.01 -11 12.1 72 -15.1 4.8
02:40 1018 30.06 847 25.01 -11 12.2 72 -15.2 4.6
02:45 1018 30.06 847 25.01 -11 12.2 72 -15.2 4.7
02:50 1018 30.06 847 25.01 -11.2 11.8 72 -15.2 4.6
02:55 1018 30.06 847 25.01 -11.3 11.7 72 -15.3 4.4
03:00 1018 30.06 847 25.01 -11.3 11.7 73 -15.3 4.5
03:05 1018 30.06 847 25.01 -11.3 11.7 73 -15.3 4.5
03:10 1018 30.06 847 25.01 -11.2 11.8 72 -15.2 4.6
03:15 1018 30.06 847 25.01 -11.2 11.9 72 -15.3 4.4
03:20 1018 30.06 847 25.01 -11.2 11.8 72 -15.3 4.4
03:25 1018 30.06 847 25.01 -11.3 11.8 72 -15.3 4.4
03:30 1018 30.06 847 25.01 -11.3 11.6 73 -15.3 4.5
03:35 1018 30.06 847 25.01 -11.2 11.9 72 -15.3 4.4
03:40 1018 30.06 847 25.01 -11.1 11.9 72 -15.2 4.6
03:45 1018 30.06 847 25.01 -11.2 11.9 73 -15.2 4.7
03:50 1018 30.06 847 25.01 -11.2 11.9 73 -15.1 4.9
03:55 1018 30.06 847 25.01 -11.1 12 73 -15 5
04:00 1018 30.06 847 25.01 -11.1 12 73 -15 5.1
04:05 1018 30.06 847 25.01 -11.1 12.1 74 -14.9 5.2
04:10 1018 30.06 847 25.01 -10.9 12.4 72 -14.9 5.1
04:15 1018 30.06 847 25.01 -10.8 12.6 72 -14.9 5.1
04:20 1018 30.06 847 25.01 -11 12.3 73 -14.9 5.1
04:25 1018 30.06 847 25.01 -10.9 12.3 72 -15 5
04:30 1018 30.06 847 25.01 -10.8 12.5 72 -14.9 5.2
04:35 1018 30.06 847 25.01 -10.9 12.4 73 -14.8 5.3
04:40 1018 30.06 847 25.01 -11.1 12.1 72 -15.1 4.8
04:45 1018 30.06 847 25.01 -11.4 11.4 77 -14.7 5.5
04:50 1017 30.03 847 25.01 -11.7 11 76 -15 4.9
04:55 1018 30.06 847 25.01 -11.6 11.1 76 -15 4.9
05:00 1017 30.03 847 25.01 -11.8 10.8 76 -15.2 4.6
05:05 1018 30.06 847 25.01 -12.2 10 79 -15.2 4.6
05:10 1017 30.03 847 25.01 -12.4 9.6 79 -15.4 4.3
05:15 1017 30.03 847 25.01 -12.5 9.4 79 -15.5 4.1
05:20 1017 30.03 847 25.01 -12.6 9.3 79 -15.4 4.2
05:25 1017 30.03 847 25.01 -12.5 9.6 80 -15.3 4.4
05:30 1018 30.06 847 25.01 -12.1 10.2 78 -15.3 4.5
05:35 1018 30.06 847 25.01 -12 10.5 78 -15.1 4.8
05:40 1018 30.06 847 25.01 -12 10.5 76 -15.3 4.4
05:45 1018 30.06 847 25.01 -12.1 10.3 77 -15.4 4.3
05:50 1018 30.06 847 25.01 -12.1 10.3 77 -15.3 4.4
05:55 1018 30.06 847 25.01 -12 10.4 77 -15.2 4.6
06:00 1018 30.06 847 25.01 -11.9 10.7 78 -14.9 5.1
06:05 1018 30.06 847 25.01 -12 10.5 78 -15 5
06:10 1018 30.06 847 25.01 -12.1 10.3 79 -14.9 5.1
06:15 1018 30.06 847 25.01 -12.2 10.1 80 -14.9 5.1
06:20 1018 30.06 847 25.01 -12 10.5 79 -14.8 5.3
06:25 1018 30.06 847 25.01 -11.9 10.6 78 -15 5
06:30 1018 30.06 847 25.01 -12.1 10.2 80 -14.9 5.2
06:35 1018 30.06 847 25.01 -12 10.5 79 -14.9 5.1
06:40 1018 30.06 847 25.01 -12.1 10.2 79 -15 4.9
06:45 1018 30.06 847 25.01 -12.1 10.2 79 -15.1 4.8
06:50 1018 30.06 847 25.01 -11.9 10.6 79 -14.8 5.4
06:55 1018 30.06 847 25.01 -11.7 11 78 -14.8 5.4
07:00 1018 30.06 847 25.01 -11.5 11.3 77 -14.7 5.5
07:05 1018 30.06 847 25.01 -11.6 11.2 75 -15.1 4.8
07:10 1018 30.06 847 25.01 -12 10.4 79 -14.9 5.2
07:15 1018 30.06 847 25.01 -12.1 10.2 79 -15 5.1
07:20 1018 30.06 847 25.01 -12.1 10.3 78 -15.1 4.8
07:25 1018 30.06 847 25.01 -12 10.4 79 -15 5.1
07:30 1018 30.06 847 25.01 -11.7 11 76 -15.1 4.9
07:35 1018 30.06 847 25.01 -11.8 10.9 77 -15.1 4.9
07:40 1018 30.06 847 25.01 -11.7 10.9 76 -15.1 4.8
07:45 1018 30.06 847 25.01 -11.8 10.8 77 -15 5
07:50 1018 30.06 847 25.01 -11.7 11 78 -14.8 5.3
07:55 1018 30.06 847 25.01 -11.5 11.4 78 -14.6 5.8
08:00 1018 30.06 847 25.01 -11.2 11.8 76 -14.7 5.5
08:05 1018 30.06 847 25.01 -11.1 12 73 -15 5
08:10 1018 30.06 847 25.01 -11.4 11.4 75 -15 5
08:15 1018 30.06 847 25.01 -11.8 10.7 76 -15.2 4.7
08:20 1018 30.06 847 25.01 -12 10.4 79 -15 5.1
08:25 1018 30.06 847 25.01 -12 10.5 79 -15 5
08:30 1018 30.06 847 25.01 -11.9 10.6 78 -15 5.1
08:35 1018 30.06 847 25.01 -11.6 11.1 77 -14.9 5.1
08:40 1018 30.06 847 25.01 -11.6 11.2 77 -14.8 5.4
08:45 1018 30.06 847 25.01 -11.4 11.4 78 -14.5 5.9
08:50 1018 30.06 847 25.01 -11.2 11.8 77 -14.6 5.7
08:55 1018 30.06 847 25.01 -11.1 12.1 74 -14.8 5.4
09:00 1018 30.06 847 25.01 -11.3 11.7 77 -14.5 5.8
09:05 1018 30.06 847 25.01 -11.5 11.3 77 -14.8 5.4
09:10 1018 30.06 847 25.01 -11.5 11.4 78 -14.6 5.7
09:15 1018 30.06 847 25.01 -11.3 11.8 77 -14.6 5.7
09:20 1018 30.06 847 25.01 -11.2 11.9 76 -14.7 5.6
09:25 1018 30.06 847 25.01 -11 12.2 75 -14.6 5.7
09:30 1018 30.06 847 25.01 -10.7 12.8 74 -14.5 5.8
09:35 1018 30.06 847 25.01 -10.7 12.8 74 -14.4 6
09:40 1018 30.06 847 25.01 -10.7 12.8 74 -14.4 6
09:45 1018 30.06 847 25.01 -10.9 12.4 75 -14.5 5.9
09:50 1018 30.06 847 25.01 -10.8 12.6 75 -14.4 6.1
09:55 1018 30.06 847 25.01 -10.6 12.9 75 -14.3 6.3
10:00 1018 30.06 847 25.01 -10.4 13.2 75 -14.1 6.6
10:05 1018 30.06 847 25.01 -10.4 13.4 74 -14.1 6.6
10:10 1018 30.06 847 25.01 -10.2 13.6 74 -14.1 6.7
10:15 1018 30.06 847 25.01 -10.1 13.9 73 -14.1 6.7
10:20 1018 30.06 847 25.01 -9.8 14.5 71 -14.1 6.6
10:25 1018 30.06 847 25.01 -9.8 14.4 72 -14 6.8
10:30 1018 30.06 847 25.01 -10 14.1 72 -14.1 6.6
10:35 1018 30.06 848 25.04 -9.8 14.3 70 -14.3 6.3
10:40 1018 30.06 847 25.01 -9.6 14.8 70 -14 6.8
10:45 1018 30.06 847 25.01 -9.3 15.3 69 -14 6.8
10:50 1018 30.06 847 25.01 -9.1 15.7 67 -14.1 6.6
10:55 1018 30.06 848 25.04 -9.3 15.2 66 -14.5 5.9
11:00 1018 30.06 848 25.04 -9.6 14.8 68 -14.3 6.2
11:05 1018 30.06 848 25.04 -9.5 14.9 69 -14.2 6.5
11:10 1018 30.06 848 25.04 -9.1 15.6 66 -14.4 6.1
11:15 1018 30.06 848 25.04 -8.8 16.2 65 -14.2 6.5
11:20 1019 30.09 848 25.04 -8.7 16.4 65 -14.1 6.6
11:25 1019 30.09 848 25.04 -8.6 16.6 65 -13.9 6.9
11:30 1019 30.09 848 25.04 -8.6 16.6 65 -14 6.8
11:35 1019 30.09 848 25.04 -8.1 17.5 61 -14.2 6.4
11:40 1019 30.09 848 25.04 -7.8 18.1 61 -14 6.8
11:45 1019 30.09 848 25.04 -7.4 18.7 60 -13.9 7.1
11:50 1019 30.09 848 25.04 -6.9 19.7 57 -14 6.9
11:55 1019 30.09 848 25.04 -6.6 20.2 58 -13.4 7.8
12:00 1018 30.06 848 25.04 -5.9 21.3 57 -13.3 8.1
12:05 1018 30.06 848 25.04 -5.5 22.2 56 -12.9 8.7
12:10 1019 30.09 848 25.04 -5.4 22.2 55 -13.2 8.3
12:15 1018 30.06 848 25.04 -5.7 21.7 56 -13.1 8.4
12:20 1018 30.06 848 25.04 -5.9 21.4 56 -13.4 7.9
12:25 1018 30.06 848 25.04 -5.7 21.8 55 -13.3 8
12:30 1018 30.06 847 25.01 -5.2 22.6 54 -13.3 8.1
12:35 1018 30.06 848 25.04 -5.4 22.2 56 -13 8.6
12:40 1018 30.06 848 25.04 -5.9 21.5 56 -13.4 7.9
12:45 1018 30.06 847 25.01 -5.6 21.8 53 -13.7 7.4
12:50 1018 30.06 847 25.01 -5.3 22.5 52 -13.7 7.4
12:55 1018 30.06 847 25.01 -5.4 22.2 54 -13.4 7.9
13:00 1018 30.06 847 25.01 -5.1 22.8 52 -13.5 7.6
13:05 1018 30.06 847 25.01 -4.6 23.8 51 -13.2 8.3
13:10 1018 30.06 847 25.01 -4.3 24.3 49 -13.4 7.9
13:15 1018 30.06 847 25.01 -4 24.7 50 -13 8.6
13:20 1018 30.06 847 25.01 -4.1 24.6 49 -13.4 7.8
13:25 1018 30.06 847 25.01 -3.9 25 48 -13.3 8.1
13:30 1018 30.06 847 25.01 -4.2 24.5 51 -12.8 9
13:35 1018 30.06 847 25.01 -4.6 23.7 53 -12.9 8.8
13:40 1018 30.06 847 25.01 -4.9 23.3 51 -13.4 7.8
13:45 1018 30.06 847 25.01 -4.2 24.5 49 -13.5 7.8
13:50 1018 30.06 847 25.01 -4.2 24.4 52 -12.5 9.4
13:55 1018 30.06 847 25.01 -4.7 23.5 51 -13.4 7.9
14:00 1018 30.06 847 25.01 -5.4 22.3 53 -13.4 7.8
14:05 1018 30.06 847 25.01 -4.5 23.9 50 -13.4 7.9
14:10 1018 30.06 847 25.01 -4.1 24.7 48 -13.5 7.7
14:15 1018 30.06 847 25.01 -4.2 24.5 48 -13.6 7.5
14:20 1018 30.06 847 25.01 -4.5 24 51 -13 8.6
14:25 1018 30.06 847 25.01 -5.1 22.8 52 -13.5 7.6
14:30 1018 30.06 847 25.01 -4.4 24.1 49 -13.5 7.6
14:35 1018 30.06 847 25.01 -4.1 24.6 49 -13.2 8.2
14:40 1018 30.06 847 25.01 -4.3 24.2 50 -13.2 8.2
14:45 1018 30.06 847 25.01 -4.1 24.6 48 -13.7 7.4
14:50 1018 30.06 847 25.01 -3.9 25 48 -13.3 8
14:55 1017 30.03 847 25.01 -4.1 24.5 49 -13.4 7.9
15:00 1017 30.03 847 25.01 -4.2 24.4 49 -13.5 7.6
15:05 1017 30.03 847 25.01 -4 24.8 46 -14 6.8
15:10 1017 30.03 846 24.98 -3.5 25.6 47 -13.3 8.1
15:15 1017 30.03 846 24.98 -3.8 25.1 45 -14.1 6.6
15:20 1017 30.03 846 24.98 -3.9 25 46 -13.9 7
15:25 1017 30.03 846 24.98 -3.8 25.2 46 -13.8 7.2
15:30 1017 30.03 846 24.98 -3.8 25.1 46 -13.9 7
15:35 1017 30.03 846 24.98 -3.9 25 47 -13.7 7.4
15:40 1017 30.03 846 24.98 -3.8 25.1 46 -13.8 7.2
15:45 1017 30.03 846 24.98 -3.9 25 48 -13.3 8
15:50 1017 30.03 846 24.98 -3.7 25.3 47 -13.5 7.7
15:55 1017 30.03 846 24.98 -3.5 25.8 45 -13.8 7.1
16:00 1017 30.03 846 24.98 -3.4 26 44 -13.8 7.1
16:05 1017 30.03 846 24.98 -3.7 25.3 46 -13.6 7.5
16:10 1017 30.03 846 24.98 -3.9 25 45 -14 6.7
16:15 1017 30.03 846 24.98 -4 24.8 47 -13.6 7.4
16:20 1017 30.03 846 24.98 -3.8 25.2 45 -14 6.8
16:25 1017 30.03 846 24.98 -3.8 25.1 47 -13.5 7.8
16:30 1017 30.03 846 24.98 -3.9 24.9 47 -13.6 7.4
16:35 1017 30.03 846 24.98 -3.6 25.4 47 -13.5 7.7
16:40 1017 30.03 846 24.98 -3.6 25.5 47 -13.4 8
16:45 1017 30.03 847 25.01 -3.7 25.3 48 -13.3 8
16:50 1017 30.03 847 25.01 -3.9 25 48 -13.3 8
16:55 1017 30.03 847 25.01 -4.1 24.6 50 -13.1 8.4
17:00 1017 30.03 847 25.01 -4.2 24.5 50 -13.1 8.4
17:05 1017 30.03 847 25.01 -4.5 23.9 50 -13.3 8
17:10 1017 30.03 847 25.01 -4.5 23.9 51 -13.3 8.1
17:15 1017 30.03 847 25.01 -4.8 23.4 52 -13.2 8.3
17:20 1017 30.03 847 25.01 -5 23 53 -13.2 8.3
17:25 1017 30.03 847 25.01 -5.1 22.7 54 -13.1 8.4
17:30 1017 30.03 847 25.01 -5.2 22.6 54 -13.2 8.3
17:35 1017 30.03 847 25.01 -5.7 21.8 56 -13 8.5
17:40 1017 30.03 847 25.01 -6.1 21 57 -13.3 8.1
17:45 1017 30.03 847 25.01 -6.4 20.4 58 -13.3 8
17:50 1017 30.03 847 25.01 -6.7 19.9 60 -13.2 8.2
17:55 1017 30.03 847 25.01 -6.9 19.6 60 -13.4 7.8
18:00 1017 30.03 847 25.01 -7.1 19.2 62 -13.3 8.1
18:05 1017 30.03 847 25.01 -7.3 18.9 62 -13.3 8
18:10 1017 30.03 847 25.01 -7.3 18.9 61 -13.6 7.5
18:15 1017 30.03 847 25.01 -7.5 18.4 62 -13.5 7.6
18:20 1017 30.03 847 25.01 -7.7 18.2 64 -13.4 7.9
18:25 1018 30.06 847 25.01 -7.6 18.2 64 -13.2 8.2
18:30 1018 30.06 847 25.01 -7.5 18.4 64 -13.2 8.2
18:35 1018 30.06 847 25.01 -7.9 17.9 66 -13.1 8.4
18:40 1018 30.06 847 25.01 -8.1 17.4 68 -13.1 8.4
18:45 1018 30.06 847 25.01 -8.2 17.2 69 -13 8.6
18:50 1018 30.06 847 25.01 -8.7 16.3 70 -13.2 8.2
18:55 1018 30.06 847 25.01 -9 15.7 72 -13.3 8.1
19:00 1018 30.06 847 25.01 -9.1 15.7 70 -13.5 7.6
19:05 1018 30.06 847 25.01 -9.3 15.3 71 -13.7 7.4
19:10 1018 30.06 847 25.01 -9.2 15.5 70 -13.7 7.4
19:15 1018 30.06 847 25.01 -9.2 15.4 71 -13.5 7.6
19:20 1018 30.06 847 25.01 -9.3 15.3 71 -13.7 7.3
19:25 1018 30.06 847 25.01 -9.5 15 71 -13.7 7.3
19:30 1018 30.06 847 25.01 -9.5 15 70 -14 6.8
19:35 1018 30.06 847 25.01 -9.9 14.2 72 -14 6.8
19:40 1018 30.06 847 25.01 -10.4 13.3 74 -14.2 6.4
19:45 1018 30.06 847 25.01 -10.5 13 74 -14.4 6.1
19:50 1018 30.06 847 25.01 -10.8 12.6 76 -14.2 6.4
19:55 1018 30.06 847 25.01 -10.4 13.3 75 -14.1 6.7
20:00 1018 30.06 847 25.01 -10 14.1 75 -13.6 7.5
20:05 1018 30.06 847 25.01 -9.9 14.2 73 -13.8 7.1
20:10 1018 30.06 847 25.01 -10.1 13.7 75 -13.8 7.2
20:15 1018 30.06 847 25.01 -10.2 13.7 74 -13.9 7
20:20 1018 30.06 847 25.01 -10.2 13.6 74 -14 6.8
20:25 1018 30.06 847 25.01 -10.3 13.5 74 -14 6.8
20:30 1018 30.06 847 25.01 -10.2 13.6 74 -14 6.8
20:35 1018 30.06 847 25.01 -10.2 13.6 74 -14 6.9
20:40 1018 30.06 847 25.01 -10.1 13.8 74 -14 6.9
20:45 1018 30.06 847 25.01 -10 14.1 73 -13.8 7.1
20:50 1018 30.06 847 25.01 -9.9 14.3 73 -13.8 7.1
20:55 1018 30.06 847 25.01 -9.7 14.5 71 -14.1 6.6
21:00 1018 30.06 847 25.01 -9.6 14.7 71 -14 6.8
21:05 1018 30.06 847 25.01 -9.4 15.2 69 -14 6.7
21:10 1018 30.06 847 25.01 -9.4 15 68 -14.3 6.3
21:15 1018 30.06 847 25.01 -9.6 14.7 68 -14.4 6.1
21:20 1018 30.06 847 25.01 -10.1 13.9 69 -14.7 5.6
21:25 1018 30.06 847 25.01 -10.5 13.1 71 -14.8 5.3
21:30 1018 30.06 847 25.01 -10.8 12.6 72 -15 5.1
21:35 1018 30.06 847 25.01 -10.7 12.7 72 -14.8 5.3
21:40 1018 30.06 847 25.01 -10.6 13 72 -14.7 5.6
21:45 1018 30.06 847 25.01 -10.5 13.2 72 -14.5 5.8
21:50 1018 30.06 847 25.01 -10.4 13.2 72 -14.5 5.8
21:55 1018 30.06 847 25.01 -10.7 12.8 74 -14.5 5.9
22:00 1018 30.06 847 25.01 -10.3 13.5 70 -14.7 5.5
22:05 1018 30.06 847 25.01 -10.4 13.4 72 -14.5 5.8
22:10 1018 30.06 847 25.01 -10.4 13.2 69 -15 4.9
22:15 1018 30.06 847 25.01 -10.8 12.6 70 -15.3 4.5
22:20 1018 30.06 847 25.01 -10.7 12.8 68 -15.6 4
22:25 1018 30.06 847 25.01 -10 14.1 65 -15.3 4.5
22:30 1018 30.06 847 25.01 -10.3 13.4 67 -15.4 4.4
22:35 1018 30.06 848 25.04 -10.6 12.9 69 -15.3 4.5
22:40 1018 30.06 848 25.04 -11 12.3 71 -15.3 4.5
22:45 1018 30.06 848 25.04 -11.4 11.5 73 -15.3 4.4
22:50 1018 30.06 848 25.04 -11.2 11.9 71 -15.5 4.1
22:55 1018 30.06 848 25.04 -11.1 12.1 69 -15.6 3.9
23:00 1018 30.06 848 25.04 -11 12.1 70 -15.5 4.1
23:05 1018 30.06 848 25.04 -11.1 12.1 70 -15.5 4.1
23:10 1018 30.06 848 25.04 -11.2 11.9 70 -15.5 4.1
23:15 1018 30.06 848 25.04 -11.4 11.6 70 -15.8 3.6
23:20 1019 30.09 848 25.04 -11 12.1 68 -15.8 3.5
23:25 1019 30.09 848 25.04 -11 12.1 68 -15.8 3.5
23:30 1019 30.09 848 25.04 -10.8 12.6 67 -15.8 3.5
23:35 1019 30.09 848 25.04 -10.7 12.8 67 -15.7 3.7
23:40 1019 30.09 848 25.04 -10.8 12.7 67 -15.8 3.6
23:45 1019 30.09 848 25.04 -10.9 12.3 68 -15.8 3.5
23:50 1019 30.09 848 25.04 -11.1 12.1 66 -16.2 2.9
23:55 1019 30.09 848 25.04 -11.1 12.1 67 -16.1 3
24:00 1019 30.09 848 25.04 -10.8 12.5 65 -16.2 2.9